createdAt,value
2023-02-12T00:00:57.482Z,4.23
2023-02-12T00:06:02.544Z,4.24
2023-02-12T00:11:15.713Z,4.18
2023-02-12T00:16:20.134Z,4.04
2023-02-12T00:21:22.799Z,4.05
2023-02-12T00:26:25.182Z,4.05
2023-02-12T00:31:30.894Z,4.03
2023-02-12T00:36:32.899Z,3.98
2023-02-12T00:41:34.419Z,3.92
2023-02-12T00:46:35.977Z,3.82
2023-02-12T00:51:37.809Z,3.82
2023-02-12T00:56:39.700Z,3.77
2023-02-12T01:01:41.258Z,3.68
2023-02-12T01:06:42.847Z,3.61
2023-02-12T01:11:44.378Z,3.50
2023-02-12T01:16:45.849Z,3.43
2023-02-12T01:21:47.350Z,3.41
2023-02-12T01:26:48.814Z,3.34
2023-02-12T01:31:50.425Z,3.29
2023-02-12T01:36:52.054Z,3.22
2023-02-12T01:41:53.627Z,3.14
2023-02-12T01:46:57.865Z,3.03
2023-02-12T01:52:18.009Z,2.96
2023-02-12T01:57:20.122Z,2.92
2023-02-12T02:02:22.073Z,2.90
2023-02-12T02:07:24.176Z,2.80
2023-02-12T02:12:45.605Z,2.78
2023-02-12T02:17:55.907Z,2.78
2023-02-12T02:23:30.572Z,2.77
2023-02-12T02:28:59.208Z,2.74
2023-02-12T02:34:03.265Z,2.68
2023-02-12T02:39:29.589Z,2.62
2023-02-12T02:44:40.587Z,2.58
2023-02-12T02:49:50.077Z,2.55
2023-02-12T02:55:03.802Z,2.50
2023-02-12T03:00:32.590Z,2.44
2023-02-12T03:05:49.295Z,2.41
2023-02-12T03:10:59.879Z,2.50
2023-02-12T03:16:25.709Z,2.56
2023-02-12T03:21:35.924Z,2.59
2023-02-12T03:26:48.507Z,2.63
2023-02-12T03:32:27.512Z,2.74
2023-02-12T03:37:31.376Z,2.84
2023-02-12T03:42:41.095Z,2.93
2023-02-12T03:47:48.953Z,3.06
2023-02-12T03:52:50.605Z,3.13
2023-02-12T03:58:00.771Z,3.19
2023-02-12T04:03:02.261Z,3.31
2023-02-12T04:08:07.760Z,3.39
2023-02-12T04:13:18.976Z,3.48
2023-02-12T04:18:49.380Z,3.57
2023-02-12T04:24:03.436Z,3.73
2023-02-12T04:29:29.251Z,3.83
2023-02-12T04:35:11.659Z,3.92
2023-02-12T04:40:17.072Z,4.02
2023-02-12T04:45:25.924Z,4.15
2023-02-12T04:50:37.146Z,4.16
2023-02-12T04:55:38.770Z,4.26
2023-02-12T05:00:40.419Z,4.34
2023-02-12T05:05:41.959Z,4.39
2023-02-12T05:10:43.462Z,4.51
2023-02-12T05:15:45.043Z,4.56
2023-02-12T05:20:46.633Z,4.59
2023-02-12T05:25:48.126Z,4.64
2023-02-12T05:30:49.644Z,4.67
2023-02-12T05:35:51.222Z,4.71
2023-02-12T05:40:52.735Z,4.74
2023-02-12T05:45:54.534Z,4.75
2023-02-12T05:51:06.595Z,4.76
2023-02-12T05:56:14.125Z,4.75
2023-02-12T06:01:25.951Z,4.81
2023-02-12T06:06:29.573Z,4.85
2023-02-12T06:11:31.092Z,4.88
2023-02-12T06:16:34.092Z,4.89
2023-02-12T06:21:35.728Z,4.90
2023-02-12T06:26:37.324Z,4.97
2023-02-12T06:31:38.995Z,5.00
2023-02-12T06:36:44.699Z,5.03
2023-02-12T06:41:46.352Z,5.05
2023-02-12T06:46:47.966Z,5.02
2023-02-12T06:51:49.529Z,5.14
2023-02-12T06:56:51.034Z,5.19
2023-02-12T07:01:52.487Z,5.18
2023-02-12T07:06:53.979Z,5.22
2023-02-12T07:11:56.865Z,5.24
2023-02-12T07:16:58.419Z,5.27
2023-02-12T07:21:59.972Z,5.28
2023-02-12T07:27:01.454Z,5.33
2023-02-12T07:32:03.040Z,5.38
2023-02-12T07:37:04.549Z,5.44
2023-02-12T07:42:06.101Z,5.44
2023-02-12T07:47:07.629Z,5.44
2023-02-12T07:52:10.992Z,5.46
2023-02-12T07:57:14.567Z,5.52
2023-02-12T08:02:16.159Z,5.58
2023-02-12T08:07:18.286Z,5.68
2023-02-12T08:12:19.905Z,5.73
2023-02-12T08:17:21.451Z,5.74
2023-02-12T08:22:22.976Z,5.77
2023-02-12T08:27:24.458Z,5.79
2023-02-12T08:32:25.922Z,5.86
2023-02-12T08:37:27.385Z,5.92
2023-02-12T08:42:29.555Z,5.96
2023-02-12T08:47:31.469Z,6.01
2023-02-12T08:52:35.158Z,6.07
2023-02-12T08:57:36.779Z,6.09
2023-02-12T09:02:38.283Z,6.13
2023-02-12T09:07:39.769Z,6.14
2023-02-12T09:12:41.243Z,6.20
2023-02-12T09:17:43.671Z,6.27
2023-02-12T09:22:45.199Z,6.27
2023-02-12T09:27:46.764Z,6.27
2023-02-12T09:32:48.331Z,6.29
2023-02-12T09:37:50.148Z,6.40
2023-02-12T09:43:17.962Z,6.51
2023-02-12T09:48:37.795Z,6.57
2023-02-12T09:53:43.305Z,6.69
2023-02-12T09:58:50.133Z,6.73
2023-02-12T10:03:52.759Z,6.81
2023-02-12T10:09:03.777Z,6.87
2023-02-12T10:14:27.093Z,6.92
2023-02-12T10:19:50.294Z,7.01
2023-02-12T10:25:22.584Z,7.11
2023-02-12T10:30:45.911Z,7.20
2023-02-12T10:35:51.577Z,7.31
2023-02-12T10:40:55.153Z,7.34
2023-02-12T10:45:57.384Z,7.41
2023-02-12T10:51:08.262Z,7.53
2023-02-12T10:56:17.328Z,7.64
2023-02-12T11:01:22.255Z,7.65
2023-02-12T11:06:27.915Z,7.68
2023-02-12T11:11:37.094Z,7.76
2023-02-12T11:17:02.697Z,7.85
2023-02-12T11:22:11.427Z,7.87
2023-02-12T11:27:15.823Z,7.93
2023-02-12T11:32:19.769Z,7.99
2023-02-12T11:37:22.297Z,7.99
2023-02-12T11:42:26.405Z,7.98
2023-02-12T11:47:32.065Z,8.03
2023-02-12T11:52:37.019Z,8.07
2023-02-12T11:57:47.114Z,8.03
2023-02-12T12:03:30.161Z,8.10
2023-02-12T12:08:44.008Z,8.12
2023-02-12T12:13:55.647Z,8.11
2023-02-12T12:19:25.058Z,8.16
2023-02-12T12:24:42.183Z,8.13
2023-02-12T12:30:06.704Z,8.19
2023-02-12T12:35:15.963Z,8.18
2023-02-12T12:40:42.920Z,8.19
2023-02-12T12:46:18.131Z,8.19
2023-02-12T12:51:36.889Z,8.08
2023-02-12T12:56:38.405Z,8.18
2023-02-12T13:02:01.862Z,8.15
2023-02-12T13:07:24.570Z,8.10
2023-02-12T13:12:54.080Z,7.95
2023-02-12T13:18:06.511Z,7.98
2023-02-12T13:23:20.893Z,7.88
2023-02-12T13:28:38.350Z,7.85
2023-02-12T13:33:45.101Z,7.90
2023-02-12T13:39:16.177Z,7.91
2023-02-12T13:44:32.717Z,7.86
2023-02-12T13:49:39.988Z,7.90
2023-02-12T13:55:19.336Z,7.76
2023-02-12T14:00:52.007Z,7.69
2023-02-12T14:06:13.538Z,7.40
2023-02-12T14:11:19.302Z,7.32
2023-02-12T14:16:38.601Z,7.40
2023-02-12T14:21:40.360Z,7.45
2023-02-12T14:26:42.058Z,7.23
2023-02-12T14:31:43.964Z,7.24
2023-02-12T14:36:49.144Z,7.35
2023-02-12T14:42:09.826Z,7.20
2023-02-12T14:47:14.320Z,7.21
2023-02-12T14:52:23.053Z,7.21
2023-02-12T14:57:40.581Z,7.32
2023-02-12T15:02:54.194Z,7.17
2023-02-12T15:08:02.798Z,7.17
2023-02-12T15:13:22.592Z,7.26
2023-02-12T15:18:31.002Z,7.22
2023-02-12T15:23:45.506Z,7.19
2023-02-12T15:28:50.310Z,7.12
2023-02-12T15:33:53.817Z,7.23
2023-02-12T15:39:01.523Z,7.07
2023-02-12T15:44:05.188Z,7.15
2023-02-12T15:49:19.443Z,7.03
2023-02-12T15:54:21.219Z,6.88
2023-02-12T15:59:26.566Z,7.00
2023-02-12T16:04:33.103Z,7.12
2023-02-12T16:09:36.713Z,7.16
2023-02-12T16:14:46.537Z,7.13
2023-02-12T16:20:00.401Z,7.00
2023-02-12T16:25:02.744Z,6.98
2023-02-12T16:30:26.758Z,7.00
2023-02-12T16:35:34.350Z,6.99
2023-02-12T16:40:36.518Z,6.96
2023-02-12T16:45:41.375Z,6.95
2023-02-12T16:50:47.366Z,6.95
2023-02-12T16:55:49.239Z,6.92
2023-02-12T17:00:50.783Z,6.90
2023-02-12T17:05:52.748Z,6.94
2023-02-12T17:10:54.347Z,6.89
2023-02-12T17:15:59.647Z,6.85
2023-02-12T17:21:38.050Z,6.85
2023-02-12T17:26:39.696Z,6.84
2023-02-12T17:31:41.341Z,6.80
2023-02-12T17:36:43.126Z,6.84
2023-02-12T17:41:44.903Z,6.81
2023-02-12T17:46:46.379Z,6.76
2023-02-12T17:51:47.867Z,6.81
2023-02-12T17:56:49.706Z,6.79
2023-02-12T18:01:51.339Z,6.83
2023-02-12T18:06:52.870Z,6.81
2023-02-12T18:11:54.396Z,6.81
2023-02-12T18:16:55.953Z,6.80
2023-02-12T18:21:59.039Z,6.71
2023-02-12T18:27:01.450Z,6.65
2023-02-12T18:32:07.530Z,6.61
2023-02-12T18:37:10.877Z,6.59
2023-02-12T18:42:12.682Z,6.53
2023-02-12T18:47:14.169Z,6.47
2023-02-12T18:52:15.698Z,6.47
2023-02-12T18:57:17.381Z,6.47
2023-02-12T19:02:18.914Z,6.52
2023-02-12T19:07:20.448Z,6.54
2023-02-12T19:12:22.036Z,6.47
2023-02-12T19:17:23.578Z,6.50
2023-02-12T19:22:25.028Z,6.49
2023-02-12T19:27:26.540Z,6.46
2023-02-12T19:32:28.514Z,6.50
2023-02-12T19:37:31.845Z,6.51
2023-02-12T19:42:33.848Z,6.62
2023-02-12T19:47:35.345Z,6.68
2023-02-12T19:52:36.973Z,6.77
2023-02-12T19:57:38.598Z,6.76
2023-02-12T20:02:41.689Z,6.68
2023-02-12T20:07:45.061Z,6.53
2023-02-12T20:12:46.612Z,6.51
2023-02-12T20:17:48.079Z,6.44
2023-02-12T20:22:49.547Z,6.30
2023-02-12T20:27:51.111Z,6.20
2023-02-12T20:32:52.580Z,6.28
2023-02-12T20:37:54.063Z,6.38
2023-02-12T20:42:55.588Z,6.28
2023-02-12T20:47:57.091Z,6.31
2023-02-12T20:52:58.683Z,6.31
2023-02-12T20:58:00.235Z,6.17
2023-02-12T21:03:03.877Z,6.10
2023-02-12T21:08:05.402Z,6.10
2023-02-12T21:13:07.216Z,6.09
2023-02-12T21:18:08.687Z,6.09
2023-02-12T21:23:10.196Z,6.12
2023-02-12T21:28:11.699Z,6.11
2023-02-12T21:33:13.213Z,6.12
2023-02-12T21:38:14.696Z,6.10
2023-02-12T21:43:16.231Z,6.11
2023-02-12T21:48:17.753Z,6.12
2023-02-12T21:53:19.266Z,6.09
2023-02-12T21:58:21.663Z,6.01
2023-02-12T22:03:23.186Z,5.93
2023-02-12T22:08:24.711Z,5.85
2023-02-12T22:13:26.232Z,5.88
2023-02-12T22:18:27.793Z,5.88
2023-02-12T22:23:29.291Z,5.91
2023-02-12T22:28:30.814Z,5.90
2023-02-12T22:33:32.393Z,5.91
2023-02-12T22:38:38.695Z,5.91
2023-02-12T22:43:40.694Z,5.89
2023-02-12T22:48:42.256Z,5.85
2023-02-12T22:53:43.926Z,5.87
2023-02-12T22:58:46.311Z,5.84
2023-02-12T23:03:47.902Z,5.85
2023-02-12T23:08:51.142Z,5.88
2023-02-12T23:13:52.833Z,5.87
2023-02-12T23:18:59.272Z,5.96
2023-02-12T23:24:00.969Z,5.96
2023-02-12T23:29:02.522Z,6.00
2023-02-12T23:34:03.998Z,6.03
2023-02-12T23:39:06.036Z,6.07
2023-02-12T23:44:09.892Z,6.06
2023-02-12T23:49:11.396Z,6.07
2023-02-12T23:54:13.492Z,6.09
2023-02-12T23:59:15.025Z,6.10
